El Dorado International Airport
SKBO : now visible

Airfield :











YOU CAN JOIN US ON...

 
LOGIN :

Register | Disclaimer

   EN    FR    IT 

 









Legend :    VFR   Marginal VFR   IFR   Intensive IFR   Very Intensive IFR
Visi :
Ceiling :
>= 8 km
>= 3000ft
5 to 8 km
1000 to 3000 ft
1500m to 5 km
500 to 1000 ft
800 to 1500m
200 to 500 ft
< 800m
< 200 ft
Symbols :   Thunderstorms  Fog  Heavy snow  Heavy precipitations  Wind > 20 kt






- Airport Elevation : 8361 ft
- IATA code : BOG


SKBO - El Dorado International

CURRENT METAR :
  • 070900Z VRB02KT 9999 FEW020 09/08 A3041 NOSIG

EXPIRED METARs :
  • 070800Z 03003KT 9999 FEW020 SCT100 10/08 A3042 NOSIG
  • 070700Z VRB02KT 9999 SCT020 11/09 A3043 NOSIG

TAF TAF SKBO
Valid from the 07 at 06:00 until the 08 at 06:00 UTC


070430Z 0706/0806 02004KT 9999 FEW017 BKN200
BECMG 0714/0716 12012KT SCT017 BKN090
PROB40 0721/0723 29010KT DZ SCT015TCU
BECMG 0801/0803 04005KT TX19/0718Z TN09/0710Z
SKED FIR / South America



MET'MAP, your aeronautical weather chart ! - Copyright ORBIFLY December 2007 - Disclaimer

ORBIFLY MET'MAP TEAM :

Programming & Development : Alexandra Zaïnal
Concept & original design : Baudouin d'Aumeries
Assistance for programming : Marc-Olivier Méhu
Technical & hardware support : Manuel Goepfert

Contact : metmap@orbifly.com




SOURCES & CREDITS :

   NOAA       Earth
Advisory